Alondra — 3FCU — position and weather

sailwx.info

Track history (hours):
 
Tides and Currents Weather Stations Pressure Air Temp Water Temp Dewpoint Dewpoint Depression Visibility Wind Speed Wind Dir Waves Ship Positions

Alondra

Last reported at 2017-Nov-19 23:50 UTC. Time now 2017-Nov-24 18:40 UTC.
Position N 35°57' W 005°36'.

Length 97 m; draft 4 m.

Type: Cargo ship. MMSI: 236404000.

Date/timePositionNaut miles runAvg speedWind from/ knotsBaromVisibWave heightAir tempDewpointWater temp
2017-Nov-19 23:50N 35°57' W 005°36'514.2
2017-Nov-19 23:31N 35°59' W 005°30'612.4
2017-Nov-19 23:00N 35°59' W 005°22'612.0
2017-Nov-19 22:30N 35°54' W 005°19'0 0.5
2017-Nov-19 21:58N 35°54' W 005°18'0 0.0
2017-Nov-19 21:28N 35°54' W 005°18'0 0.0
2017-Nov-19 20:55N 35°54' W 005°18'0 0.0
2017-Nov-19 20:28N 35°54' W 005°18'0 0.0
2017-Nov-19 19:58N 35°54' W 005°18'0 0.0
2017-Nov-19 19:28N 35°54' W 005°18'0 0.0
2017-Nov-19 18:58N 35°54' W 005°18'0 0.0
2017-Nov-19 18:28N 35°54' W 005°18'0 0.0
2017-Nov-19 17:58N 35°54' W 005°18'0 0.0
2017-Nov-19 17:28N 35°54' W 005°18'0 0.0
2017-Nov-19 17:00N 35°54' W 005°18'1 2.1
2017-Nov-19 16:30N 35°55' W 005°18'610.1
2017-Nov-19 15:57N 35°56' W 005°11'  
2017-Nov-16 16:56N 36°39' E 013°45'512.3
2017-Nov-16 16:30N 36°37' E 013°51'712.4
2017-Nov-16 15:58N 36°35' E 013°59'612.4
2017-Nov-16 15:30N 36°34' E 014°06'612.4
2017-Nov-16 15:00N 36°32' E 014°13'612.5
2017-Nov-16 14:30N 36°30' E 014°21'912.3
2017-Nov-16 13:45N 36°28' E 014°32'42612.5
2017-Nov-15 03:44N 36°34' E 023°22'4113.6
2017-Nov-15 00:42N 37°09' E 023°48'2113.4
2017-Nov-14 23:06N 37°27' E 024°02'313.7
2017-Nov-14 22:53N 37°30' E 024°04'613.6
2017-Nov-14 22:27N 37°35' E 024°08'1213.8
2017-Nov-14 21:36N 37°45' E 024°16'27712.2
2017-Nov-13 22:46N 40°44' E 028°49'414.2
2017-Nov-13 22:30N 40°44' E 028°54'714.4
2017-Nov-13 22:00N 40°45' E 029°04'  
2017-Nov-10 10:11N 37°44' E 024°19'  
Track history (hours):
 
Tides and Currents Weather Stations Pressure Air Temp Water Temp Dewpoint Dewpoint Depression Visibility Wind Speed Wind Dir Waves Ship Positions

Alondra

Last reported at 2017-Nov-19 23:50 UTC. Time now 2017-Nov-24 18:40 UTC.
Position N 35°57' W 005°36'.

Length 97 m; draft 4 m.

Type: Cargo ship. MMSI: 236404000.

Date/timePositionNaut miles runAvg speedWind from/ knotsBaromVisibWave heightAir tempDewpointWater temp
2017-Nov-19 23:50N 35°57' W 005°36'514.2
2017-Nov-19 23:31N 35°59' W 005°30'612.4
2017-Nov-19 23:00N 35°59' W 005°22'612.0
2017-Nov-19 22:30N 35°54' W 005°19'0 0.5
2017-Nov-19 21:58N 35°54' W 005°18'0 0.0
2017-Nov-19 21:28N 35°54' W 005°18'0 0.0
2017-Nov-19 20:55N 35°54' W 005°18'0 0.0
2017-Nov-19 20:28N 35°54' W 005°18'0 0.0
2017-Nov-19 19:58N 35°54' W 005°18'0 0.0
2017-Nov-19 19:28N 35°54' W 005°18'0 0.0
2017-Nov-19 18:58N 35°54' W 005°18'0 0.0
2017-Nov-19 18:28N 35°54' W 005°18'0 0.0
2017-Nov-19 17:58N 35°54' W 005°18'0 0.0
2017-Nov-19 17:28N 35°54' W 005°18'0 0.0
2017-Nov-19 17:00N 35°54' W 005°18'1 2.1
2017-Nov-19 16:30N 35°55' W 005°18'610.1
2017-Nov-19 15:57N 35°56' W 005°11'  
2017-Nov-16 16:56N 36°39' E 013°45'512.3
2017-Nov-16 16:30N 36°37' E 013°51'712.4
2017-Nov-16 15:58N 36°35' E 013°59'612.4
2017-Nov-16 15:30N 36°34' E 014°06'612.4
2017-Nov-16 15:00N 36°32' E 014°13'612.5
2017-Nov-16 14:30N 36°30' E 014°21'912.3
2017-Nov-16 13:45N 36°28' E 014°32'42612.5
2017-Nov-15 03:44N 36°34' E 023°22'4113.6
2017-Nov-15 00:42N 37°09' E 023°48'2113.4
2017-Nov-14 23:06N 37°27' E 024°02'313.7
2017-Nov-14 22:53N 37°30' E 024°04'613.6
2017-Nov-14 22:27N 37°35' E 024°08'1213.8
2017-Nov-14 21:36N 37°45' E 024°16'27712.2
2017-Nov-13 22:46N 40°44' E 028°49'414.2
2017-Nov-13 22:30N 40°44' E 028°54'714.4
2017-Nov-13 22:00N 40°45' E 029°04'  
2017-Nov-10 10:11N 37°44' E 024°19'  

Dump ship's entire track history